Time;durP1;ratioP1;P1;durP2;ratioP2;P2;SDS_P1;SDS_P2;PMS_P1;PMS_P2;Temp;Humidity;BMP_temperature;BMP_pressure;BME280_temperature;BME280_humidity;BME280_pressure;Samples;Min_cycle;Max_cycle;Signal;HPM_P1;HPM_P2
2022/04/07 00:00:28;;;;;;;;;1.00;1.00;;;;;;;;5103432;27;45232;-75
2022/04/07 00:02:53;;;;;;;;;4.00;3.00;;;;;;;;5101452;27;47050;-74
2022/04/07 00:05:19;;;;;;;;;1.67;1.67;;;;;;;;5102931;27;45440;-75
2022/04/07 00:07:44;;;;;;;;;3.00;3.00;;;;;;;;5101799;27;45368;-75
2022/04/07 00:10:09;;;;;;;;;2.33;1.33;;;;;;;;5103276;27;45298;-75
2022/04/07 00:12:35;;;;;;;;;3.00;0.33;;;;;;;;5101439;27;46177;-75
2022/04/07 00:15:00;;;;;;;;;2.00;2.00;;;;;;;;5106607;27;45443;-75
2022/04/07 00:17:26;;;;;;;;;2.33;2.33;;;;;;;;5123348;27;45331;-74
2022/04/07 00:19:52;;;;;;;;;1.00;1.00;;;;;;;;5123560;27;45322;-74
2022/04/07 00:22:17;;;;;;;;;4.33;3.00;;;;;;;;5123151;27;45332;-75
2022/04/07 00:24:42;;;;;;;;;3.00;1.33;;;;;;;;5123306;27;45301;-74
2022/04/07 00:27:08;;;;;;;;;3.33;2.67;;;;;;;;5121974;27;45997;-75
2022/04/07 00:29:33;;;;;;;;;2.33;2.33;;;;;;;;5123523;27;45200;-74
2022/04/07 00:31:59;;;;;;;;;2.67;1.67;;;;;;;;5122777;27;45221;-75
2022/04/07 00:34:24;;;;;;;;;4.00;3.00;;;;;;;;5123091;27;45790;-75
2022/04/07 00:36:50;;;;;;;;;4.67;1.33;;;;;;;;5123081;27;45211;-75
2022/04/07 00:39:15;;;;;;;;;2.00;2.00;;;;;;;;5123490;27;45288;-75
2022/04/07 00:41:42;;;;;;;;;3.00;3.00;;;;;;;;5123052;27;45360;-75
2022/04/07 00:44:08;;;;;;;;;1.00;1.00;;;;;;;;5123174;27;46162;-75
2022/04/07 00:46:42;;;;;;;;;3.00;3.00;;;;;;;;5121574;27;45763;-74
2022/04/07 00:49:09;;;;;;;;;3.00;2.00;;;;;;;;5123014;27;45422;-74
2022/04/07 00:51:37;;;;;;;;;2.33;2.33;;;;;;;;5122652;27;45307;-75
2022/04/07 00:54:02;;;;;;;;;2.67;2.67;;;;;;;;5122877;27;45221;-75
2022/04/07 00:56:28;;;;;;;;;2.00;2.00;;;;;;;;5120362;27;45249;-74
2022/04/07 00:58:54;;;;;;;;;4.00;3.00;;;;;;;;5121366;27;45264;-75
2022/04/07 01:01:23;;;;;;;;;3.00;3.00;;;;;;;;5122927;27;45460;-75
2022/04/07 01:03:49;;;;;;;;;2.33;2.00;;;;;;;;5122455;27;45332;-74
2022/04/07 01:06:14;;;;;;;;;1.00;1.00;;;;;;;;5121240;27;45304;-75
2022/04/07 01:08:39;;;;;;;;;1.00;1.00;;;;;;;;5122718;27;45267;-75
2022/04/07 01:11:05;;;;;;;;;1.00;1.00;;;;;;;;5122536;27;45369;-75
2022/04/07 01:13:46;;;;;;;;;1.33;1.33;;;;;;;;5122506;27;45354;-75
2022/04/07 01:16:12;;;;;;;;;3.00;3.00;;;;;;;;5107009;27;45346;-74
2022/04/07 01:18:38;;;;;;;;;2.33;0.67;;;;;;;;5101932;27;45401;-74
2022/04/07 01:21:04;;;;;;;;;4.33;2.33;;;;;;;;5101834;27;45750;-74
2022/04/07 01:23:32;;;;;;;;;2.00;2.00;;;;;;;;5101472;27;45387;-75
2022/04/07 01:25:57;;;;;;;;;2.00;1.33;;;;;;;;5101942;27;45284;-75
2022/04/07 01:28:22;;;;;;;;;0.33;0.33;;;;;;;;5101919;27;45261;-75
2022/04/07 01:30:48;;;;;;;;;1.00;1.00;;;;;;;;5101424;27;45210;-74
2022/04/07 01:33:13;;;;;;;;;3.00;3.00;;;;;;;;5101267;27;45262;-75
2022/04/07 01:35:38;;;;;;;;;2.67;1.67;;;;;;;;5100260;27;45929;-75
2022/04/07 01:38:03;;;;;;;;;1.33;1.00;;;;;;;;5100876;27;45673;-75
2022/04/07 01:40:31;;;;;;;;;3.33;3.33;;;;;;;;5100637;27;45489;-73
2022/04/07 01:42:57;;;;;;;;;1.33;0.33;;;;;;;;5101545;27;46405;-74
2022/04/07 01:45:23;;;;;;;;;3.00;2.00;;;;;;;;5100000;27;45367;-75
2022/04/07 01:47:49;;;;;;;;;1.33;1.33;;;;;;;;5101541;27;45448;-75
2022/04/07 01:50:15;;;;;;;;;4.00;2.00;;;;;;;;5100051;27;45911;-75
2022/04/07 01:52:43;;;;;;;;;2.00;2.00;;;;;;;;5101009;27;45517;-75
2022/04/07 01:55:08;;;;;;;;;1.00;1.00;;;;;;;;5100706;27;45461;-75
2022/04/07 01:57:34;;;;;;;;;1.67;1.00;;;;;;;;5098429;27;45332;-74
2022/04/07 01:59:59;;;;;;;;;3.33;3.33;;;;;;;;5100819;27;45592;-74
2022/04/07 02:02:25;;;;;;;;;2.67;2.00;;;;;;;;5099749;27;47428;-74
2022/04/07 02:04:54;;;;;;;;;3.00;2.33;;;;;;;;5100934;27;45307;-75
2022/04/07 02:07:19;;;;;;;;;3.33;3.00;;;;;;;;5101217;27;45346;-76
2022/04/07 02:09:45;;;;;;;;;3.00;2.00;;;;;;;;5100611;27;45362;-75
2022/04/07 02:12:10;;;;;;;;;1.00;1.00;;;;;;;;5100923;27;45363;-75
2022/04/07 02:14:35;;;;;;;;;2.00;1.00;;;;;;;;5101338;27;45430;-76
2022/04/07 02:17:00;;;;;;;;;1.00;1.00;;;;;;;;5120314;27;45385;-75
2022/04/07 02:19:26;;;;;;;;;3.00;2.00;;;;;;;;5120099;27;47498;-75
2022/04/07 02:21:52;;;;;;;;;2.67;2.67;;;;;;;;5121498;27;45348;-75
2022/04/07 02:24:17;;;;;;;;;2.67;2.00;;;;;;;;5119859;27;45540;-76
2022/04/07 02:26:42;;;;;;;;;4.00;3.00;;;;;;;;5120715;27;45305;-75
2022/04/07 02:29:08;;;;;;;;;3.00;3.00;;;;;;;;5119687;27;45631;-75
2022/04/07 02:31:33;;;;;;;;;4.00;2.00;;;;;;;;5119927;27;45380;-75
2022/04/07 02:33:58;;;;;;;;;3.00;2.00;;;;;;;;5121305;27;45431;-76
2022/04/07 02:36:23;;;;;;;;;3.33;2.33;;;;;;;;5121157;27;45320;-75
2022/04/07 02:38:49;;;;;;;;;3.33;3.33;;;;;;;;5120780;27;45442;-75
2022/04/07 02:41:14;;;;;;;;;4.33;3.00;;;;;;;;5120865;27;45352;-75
2022/04/07 02:43:39;;;;;;;;;4.00;3.00;;;;;;;;5119883;27;45323;-74
2022/04/07 02:46:04;;;;;;;;;4.67;4.00;;;;;;;;5121286;27;45293;-74
2022/04/07 02:48:29;;;;;;;;;2.33;2.00;;;;;;;;5121006;27;45224;-75
2022/04/07 02:50:55;;;;;;;;;3.00;3.00;;;;;;;;5120945;27;46430;-75
2022/04/07 02:53:20;;;;;;;;;2.67;2.67;;;;;;;;5119501;27;45227;-74
2022/04/07 02:55:45;;;;;;;;;3.33;3.33;;;;;;;;5119774;27;45446;-74
2022/04/07 02:58:10;;;;;;;;;2.00;2.00;;;;;;;;5121186;27;45346;-73
2022/04/07 03:00:35;;;;;;;;;3.00;3.00;;;;;;;;5119371;27;47027;-73
2022/04/07 03:03:01;;;;;;;;;3.67;3.67;;;;;;;;5120782;27;45254;-74
2022/04/07 03:05:26;;;;;;;;;2.67;2.67;;;;;;;;5119624;27;45435;-74
2022/04/07 03:07:51;;;;;;;;;2.00;2.00;;;;;;;;5119515;27;46212;-73
2022/04/07 03:10:16;;;;;;;;;2.00;2.00;;;;;;;;5120860;27;46253;-73
2022/04/07 03:12:42;;;;;;;;;3.67;3.00;;;;;;;;5120798;27;45291;-73
2022/04/07 03:15:07;;;;;;;;;3.00;3.00;;;;;;;;5116035;27;45377;-73
2022/04/07 03:17:33;;;;;;;;;6.67;4.00;;;;;;;;5098773;27;46024;-74
2022/04/07 03:19:58;;;;;;;;;2.00;2.00;;;;;;;;5100463;27;45339;-74
2022/04/07 03:22:25;;;;;;;;;3.33;3.33;;;;;;;;5103629;27;45337;-73
2022/04/07 03:24:52;;;;;;;;;3.00;3.00;;;;;;;;5103753;27;45328;-75
2022/04/07 03:27:17;;;;;;;;;5.00;4.33;;;;;;;;5103565;27;45484;-73
2022/04/07 03:29:42;;;;;;;;;3.00;3.00;;;;;;;;5102000;27;47283;-73
2022/04/07 03:32:07;;;;;;;;;3.33;3.33;;;;;;;;5103126;27;45321;-74
2022/04/07 03:34:33;;;;;;;;;3.00;2.67;;;;;;;;5103444;27;45222;-73
2022/04/07 03:36:59;;;;;;;;;6.33;4.67;;;;;;;;5103389;27;45372;-75
2022/04/07 03:39:24;;;;;;;;;5.67;4.00;;;;;;;;5103356;27;45252;-74
2022/04/07 03:41:49;;;;;;;;;4.00;4.00;;;;;;;;5103378;27;45288;-74
2022/04/07 03:44:14;;;;;;;;;4.33;3.33;;;;;;;;5103722;27;45398;-74
2022/04/07 03:46:40;;;;;;;;;5.33;5.00;;;;;;;;5102008;27;46480;-74
2022/04/07 03:49:05;;;;;;;;;4.00;3.67;;;;;;;;5101570;27;46956;-74
2022/04/07 03:51:30;;;;;;;;;4.33;3.33;;;;;;;;5103201;27;45223;-74
2022/04/07 03:53:55;;;;;;;;;7.00;5.33;;;;;;;;5103478;27;45592;-74
2022/04/07 03:56:21;;;;;;;;;5.00;5.00;;;;;;;;5103063;27;45309;-74
2022/04/07 03:58:46;;;;;;;;;4.00;4.00;;;;;;;;5103216;27;45536;-75
2022/04/07 04:01:11;;;;;;;;;5.67;4.33;;;;;;;;5103176;27;45359;-74
2022/04/07 04:03:36;;;;;;;;;6.00;5.00;;;;;;;;5102995;27;45396;-75
2022/04/07 04:06:02;;;;;;;;;4.00;4.00;;;;;;;;5101676;27;46134;-75
2022/04/07 04:08:27;;;;;;;;;4.00;4.00;;;;;;;;5102753;27;45833;-74
2022/04/07 04:10:52;;;;;;;;;3.00;3.00;;;;;;;;5102979;27;45377;-74
2022/04/07 04:13:17;;;;;;;;;5.00;5.00;;;;;;;;5101565;27;45359;-74
2022/04/07 04:15:43;;;;;;;;;3.00;3.00;;;;;;;;5112695;27;45471;-74
2022/04/07 04:18:08;;;;;;;;;5.00;5.00;;;;;;;;5121725;27;47687;-74
2022/04/07 04:20:33;;;;;;;;;5.00;3.00;;;;;;;;5123453;27;45302;-74
2022/04/07 04:22:58;;;;;;;;;1.67;1.67;;;;;;;;5122115;27;45390;-73
2022/04/07 04:25:23;;;;;;;;;6.67;4.67;;;;;;;;5122105;27;45947;-74
2022/04/07 04:27:49;;;;;;;;;6.00;5.00;;;;;;;;5123290;27;45418;-74
2022/04/07 04:30:14;;;;;;;;;2.33;2.33;;;;;;;;5121606;27;46014;-74
2022/04/07 04:32:39;;;;;;;;;4.33;4.33;;;;;;;;5122883;27;45451;-74
2022/04/07 04:35:05;;;;;;;;;5.00;5.00;;;;;;;;5123273;27;45251;-74
2022/04/07 04:37:31;;;;;;;;;7.00;5.00;;;;;;;;5121718;27;46856;-74
2022/04/07 04:39:56;;;;;;;;;6.67;6.33;;;;;;;;5123049;27;45211;-74
2022/04/07 04:42:21;;;;;;;;;5.00;4.67;;;;;;;;5123347;27;45427;-73
2022/04/07 04:44:47;;;;;;;;;6.33;3.67;;;;;;;;5123036;27;45286;-73
2022/04/07 04:47:12;;;;;;;;;5.33;4.67;;;;;;;;5121798;27;47486;-74
2022/04/07 04:49:41;;;;;;;;;5.67;5.33;;;;;;;;5122801;27;45301;-74
2022/04/07 04:52:07;;;;;;;;;4.67;2.67;;;;;;;;5121675;27;45427;-73
2022/04/07 04:54:32;;;;;;;;;4.33;4.33;;;;;;;;5122813;27;45419;-74
2022/04/07 04:56:57;;;;;;;;;2.00;2.00;;;;;;;;5122807;27;45348;-75
2022/04/07 04:59:23;;;;;;;;;5.00;3.67;;;;;;;;5106756;27;45436;-76
2022/04/07 05:01:48;;;;;;;;;3.33;1.00;;;;;;;;5100945;27;45349;-75
2022/04/07 05:04:13;;;;;;;;;3.67;3.67;;;;;;;;5086261;27;45444;-76
2022/04/07 05:06:38;;;;;;;;;5.00;3.00;;;;;;;;5095889;27;45419;-75
2022/04/07 05:09:04;;;;;;;;;5.33;5.33;;;;;;;;5100751;27;45332;-75
2022/04/07 05:11:29;;;;;;;;;3.00;3.00;;;;;;;;5102185;27;45323;-74
2022/04/07 05:13:54;;;;;;;;;3.00;3.00;;;;;;;;5101995;27;45293;-75
2022/04/07 05:16:19;;;;;;;;;2.67;2.67;;;;;;;;5115571;27;46937;-75
2022/04/07 05:18:47;;;;;;;;;3.00;2.00;;;;;;;;5122325;27;45480;-77
2022/04/07 05:21:13;;;;;;;;;3.33;2.67;;;;;;;;5122781;27;45506;-75
2022/04/07 05:23:38;;;;;;;;;3.00;2.67;;;;;;;;5120951;27;46612;-79
2022/04/07 05:26:03;;;;;;;;;2.00;2.00;;;;;;;;5122430;27;45317;-80
2022/04/07 05:28:29;;;;;;;;;3.00;2.00;;;;;;;;5122421;27;45250;-76
2022/04/07 05:30:54;;;;;;;;;3.00;3.00;;;;;;;;5122632;27;45313;-78
2022/04/07 05:33:19;;;;;;;;;3.33;3.33;;;;;;;;5083967;27;45212;-80
2022/04/07 05:35:44;;;;;;;;;5.00;5.00;;;;;;;;5081744;27;45377;-78
2022/04/07 05:38:10;;;;;;;;;3.33;3.33;;;;;;;;5080415;27;45250;-78
2022/04/07 05:40:35;;;;;;;;;2.33;2.33;;;;;;;;5092590;27;45420;-76
2022/04/07 05:43:01;;;;;;;;;4.00;4.00;;;;;;;;5100918;27;45309;-77
2022/04/07 05:45:26;;;;;;;;;2.00;2.00;;;;;;;;5090185;27;45363;-76
2022/04/07 05:47:52;;;;;;;;;4.33;3.33;;;;;;;;5079952;27;45457;-75
2022/04/07 05:50:17;;;;;;;;;1.33;1.33;;;;;;;;5079443;27;45286;-75
2022/04/07 05:52:42;;;;;;;;;3.33;2.33;;;;;;;;5080208;27;45357;-76
2022/04/07 05:55:08;;;;;;;;;3.00;2.33;;;;;;;;5080326;27;45309;-76
2022/04/07 05:57:33;;;;;;;;;4.00;2.00;;;;;;;;5087708;27;45324;-75
2022/04/07 06:00:06;;;;;;;;;3.00;3.00;;;;;;;;5085004;27;45320;-76
2022/04/07 06:02:31;;;;;;;;;3.00;3.00;;;;;;;;5092565;27;46679;-75
2022/04/07 06:04:56;;;;;;;;;3.00;3.00;;;;;;;;5084459;27;46531;-75
2022/04/07 06:07:22;;;;;;;;;3.00;2.00;;;;;;;;5088728;27;45341;-75
2022/04/07 06:09:47;;;;;;;;;1.67;1.67;;;;;;;;5101339;27;45379;-75
2022/04/07 06:12:12;;;;;;;;;4.33;3.33;;;;;;;;5098015;27;45901;-75
2022/04/07 06:14:37;;;;;;;;;2.67;2.00;;;;;;;;5082683;27;46120;-75
2022/04/07 06:17:03;;;;;;;;;3.33;2.00;;;;;;;;5109470;27;45347;-76
2022/04/07 06:19:28;;;;;;;;;3.33;3.33;;;;;;;;5080617;27;45365;-76
2022/04/07 06:21:54;;;;;;;;;3.33;2.67;;;;;;;;5080326;28;45289;-75
2022/04/07 06:24:19;;;;;;;;;2.67;1.67;;;;;;;;5080526;27;45353;-75
2022/04/07 06:26:44;;;;;;;;;1.00;1.00;;;;;;;;5079177;28;45357;-75
2022/04/07 06:29:09;;;;;;;;;3.33;2.33;;;;;;;;5080452;27;45344;-74
2022/04/07 06:31:34;;;;;;;;;4.00;2.67;;;;;;;;5085359;27;45458;-77
2022/04/07 06:34:00;;;;;;;;;4.33;4.00;;;;;;;;5100516;27;45544;-75
2022/04/07 06:36:26;;;;;;;;;2.33;2.33;;;;;;;;5099332;27;45286;-76
2022/04/07 06:38:51;;;;;;;;;4.00;2.67;;;;;;;;5100822;27;45444;-79
2022/04/07 06:41:16;;;;;;;;;1.33;1.33;;;;;;;;5100614;27;45384;-77
2022/04/07 06:43:41;;;;;;;;;1.33;1.33;;;;;;;;5099079;27;47108;-77
2022/04/07 06:46:06;;;;;;;;;2.00;1.00;;;;;;;;5100435;27;45345;-78
2022/04/07 06:48:32;;;;;;;;;3.00;2.00;;;;;;;;5098758;27;45263;-79
2022/04/07 06:50:57;;;;;;;;;3.33;3.33;;;;;;;;5100366;27;45403;-77
2022/04/07 06:53:22;;;;;;;;;4.00;2.67;;;;;;;;5098813;27;47024;-76
2022/04/07 06:55:47;;;;;;;;;1.00;1.00;;;;;;;;5100368;27;45433;-76
2022/04/07 06:58:13;;;;;;;;;1.00;1.00;;;;;;;;5100252;27;45287;-76
2022/04/07 07:00:43;;;;;;;;;3.00;2.33;;;;;;;;5100252;27;45526;-77
2022/04/07 07:03:08;;;;;;;;;1.33;0.33;;;;;;;;5098075;27;47258;-77
2022/04/07 07:05:35;;;;;;;;;2.00;0.33;;;;;;;;5100269;27;45356;-79
2022/04/07 07:08:29;;;;;;;;;2.00;2.00;;;;;;;;5100636;27;45396;-78
2022/04/07 07:10:55;;;;;;;;;0.67;0.67;;;;;;;;5093607;27;45333;-80
2022/04/07 07:13:21;;;;;;;;;1.00;1.00;;;;;;;;5093534;27;46993;-78
2022/04/07 07:15:47;;;;;;;;;1.00;1.00;;;;;;;;5100683;27;45616;-76
2022/04/07 07:18:12;;;;;;;;;0.33;0.33;;;;;;;;5121243;27;45249;-78
2022/04/07 07:20:37;;;;;;;;;1.00;1.00;;;;;;;;5120846;27;47277;-75
2022/04/07 07:23:03;;;;;;;;;0.00;0.00;;;;;;;;5079784;27;47360;-82
2022/04/07 07:25:31;;;;;;;;;1.33;1.33;;;;;;;;5078519;28;45574;-79
2022/04/07 07:27:56;;;;;;;;;2.33;1.33;;;;;;;;5081622;27;45484;-76
2022/04/07 07:30:22;;;;;;;;;1.33;0.33;;;;;;;;5079261;27;45386;-82
2022/04/07 07:32:48;;;;;;;;;1.00;0.00;;;;;;;;5093534;27;47325;-77
2022/04/07 07:35:13;;;;;;;;;1.33;1.33;;;;;;;;5079498;27;45401;-79
2022/04/07 07:37:47;;;;;;;;;1.00;1.00;;;;;;;;5079637;27;45321;-78
2022/04/07 07:40:12;;;;;;;;;0.33;0.33;;;;;;;;5079531;27;45338;-76
2022/04/07 07:42:37;;;;;;;;;2.00;0.33;;;;;;;;5079477;27;46375;-78
2022/04/07 07:45:06;;;;;;;;;1.00;1.00;;;;;;;;5079912;28;45396;-77
2022/04/07 07:47:32;;;;;;;;;1.33;1.00;;;;;;;;5079484;27;45433;-77
2022/04/07 07:49:57;;;;;;;;;1.67;1.67;;;;;;;;5078267;27;47245;-77
2022/04/07 07:52:22;;;;;;;;;0.67;0.00;;;;;;;;5078918;27;49218;-78
2022/04/07 07:54:48;;;;;;;;;0.00;0.00;;;;;;;;5078922;27;45435;-78
2022/04/07 07:57:13;;;;;;;;;0.33;0.33;;;;;;;;5079146;27;45423;-79
2022/04/07 07:59:38;;;;;;;;;0.00;0.00;;;;;;;;5078891;27;45249;-79
2022/04/07 08:02:03;;;;;;;;;0.00;0.00;;;;;;;;5079425;28;45213;-78
2022/04/07 08:04:29;;;;;;;;;2.00;0.00;;;;;;;;5079094;27;45259;-79
2022/04/07 08:06:54;;;;;;;;;0.00;0.00;;;;;;;;5079670;27;45362;-75
2022/04/07 08:09:19;;;;;;;;;0.67;0.67;;;;;;;;5088029;27;45268;-78
2022/04/07 08:11:45;;;;;;;;;0.00;0.00;;;;;;;;5102891;27;45792;-78
2022/04/07 08:14:10;;;;;;;;;0.00;0.00;;;;;;;;5084542;27;46196;-78
2022/04/07 08:16:36;;;;;;;;;0.00;0.00;;;;;;;;5086267;27;45469;-78
2022/04/07 08:19:02;;;;;;;;;0.00;0.00;;;;;;;;5085023;27;45335;-76
2022/04/07 08:21:27;;;;;;;;;0.00;0.00;;;;;;;;5083109;27;46129;-80
2022/04/07 08:23:53;;;;;;;;;0.00;0.00;;;;;;;;5082393;27;45429;-76
2022/04/07 08:26:18;;;;;;;;;0.00;0.00;;;;;;;;5085099;27;45414;-78
2022/04/07 08:28:43;;;;;;;;;0.00;0.00;;;;;;;;5081840;27;45315;-79
2022/04/07 08:31:09;;;;;;;;;0.00;0.00;;;;;;;;5079163;28;46047;-81
2022/04/07 08:33:34;;;;;;;;;0.00;0.00;;;;;;;;5080961;28;45373;-82
2022/04/07 08:35:59;;;;;;;;;0.00;0.00;;;;;;;;5081360;28;45372;-78
2022/04/07 08:38:24;;;;;;;;;0.00;0.00;;;;;;;;5081137;28;45994;-80
2022/04/07 08:40:53;;;;;;;;;0.00;0.00;;;;;;;;5081025;27;45563;-80
2022/04/07 08:43:18;;;;;;;;;0.33;0.00;;;;;;;;5082592;27;45323;-83
2022/04/07 08:45:44;;;;;;;;;0.33;0.33;;;;;;;;5079635;28;45292;-79
2022/04/07 08:48:10;;;;;;;;;0.00;0.00;;;;;;;;5079218;28;47021;-81
2022/04/07 08:50:38;;;;;;;;;0.00;0.00;;;;;;;;5078559;28;48019;-80
2022/04/07 08:53:04;;;;;;;;;0.00;0.00;;;;;;;;5080921;28;45401;-78
2022/04/07 08:55:29;;;;;;;;;0.00;0.00;;;;;;;;5078855;28;45380;-79
2022/04/07 08:57:55;;;;;;;;;0.00;0.00;;;;;;;;5080971;28;45484;-80
2022/04/07 09:00:20;;;;;;;;;0.00;0.00;;;;;;;;5081502;28;45507;-80
2022/04/07 09:02:46;;;;;;;;;0.00;0.00;;;;;;;;5082214;28;45267;-80
2022/04/07 09:05:11;;;;;;;;;0.00;0.00;;;;;;;;5082744;27;45307;-80
2022/04/07 09:07:37;;;;;;;;;0.00;0.00;;;;;;;;5082084;27;45472;-79
2022/04/07 09:10:03;;;;;;;;;0.00;0.00;;;;;;;;5080963;28;48110;-80
2022/04/07 09:12:29;;;;;;;;;0.00;0.00;;;;;;;;5080494;28;45512;-80
2022/04/07 09:14:58;;;;;;;;;0.00;0.00;;;;;;;;5088322;27;45328;-78
2022/04/07 09:17:23;;;;;;;;;0.00;0.00;;;;;;;;5122391;27;45313;-80
2022/04/07 09:19:49;;;;;;;;;0.00;0.00;;;;;;;;5122821;27;47937;-79
2022/04/07 09:22:14;;;;;;;;;1.00;0.00;;;;;;;;5122800;27;45372;-79
2022/04/07 09:24:41;;;;;;;;;0.00;0.00;;;;;;;;5125952;27;45367;-80
2022/04/07 09:27:09;;;;;;;;;0.00;0.00;;;;;;;;5123604;27;45969;-79
2022/04/07 09:29:38;;;;;;;;;0.00;0.00;;;;;;;;5114615;27;45279;-82
2022/04/07 09:32:04;;;;;;;;;0.00;0.00;;;;;;;;5079841;28;46200;-79
2022/04/07 09:34:30;;;;;;;;;0.00;0.00;;;;;;;;5081650;28;45637;-80
2022/04/07 09:37:14;;;;;;;;;0.00;0.00;;;;;;;;5079891;28;45968;-79
2022/04/07 09:39:44;;;;;;;;;0.00;0.00;;;;;;;;5081112;28;46197;-78
2022/04/07 09:42:25;;;;;;;;;0.00;0.00;;;;;;;;5082284;27;45273;-79
2022/04/07 09:44:52;;;;;;;;;0.00;0.00;;;;;;;;5080514;28;45354;-80
2022/04/07 09:47:19;;;;;;;;;0.00;0.00;;;;;;;;5081371;27;46343;-78
2022/04/07 09:49:45;;;;;;;;;0.00;0.00;;;;;;;;5082374;27;45320;-80
2022/04/07 09:52:10;;;;;;;;;0.00;0.00;;;;;;;;5081588;28;45354;-79
2022/04/07 09:54:39;;;;;;;;;0.00;0.00;;;;;;;;5080776;28;45356;-79
2022/04/07 09:57:05;;;;;;;;;0.00;0.00;;;;;;;;5081422;27;45315;-79
2022/04/07 09:59:30;;;;;;;;;1.00;1.00;;;;;;;;5082735;27;46023;-80
2022/04/07 10:01:56;;;;;;;;;0.00;0.00;;;;;;;;5083686;27;45312;-78
2022/04/07 10:04:22;;;;;;;;;0.00;0.00;;;;;;;;5082671;27;45334;-78
2022/04/07 10:06:48;;;;;;;;;0.00;0.00;;;;;;;;5081904;27;45393;-79
2022/04/07 10:09:13;;;;;;;;;0.00;0.00;;;;;;;;5084234;27;45503;-78
2022/04/07 10:11:39;;;;;;;;;0.00;0.00;;;;;;;;5083614;27;45236;-78
2022/04/07 10:14:05;;;;;;;;;0.00;0.00;;;;;;;;5082737;28;45207;-78
2022/04/07 10:16:30;;;;;;;;;0.00;0.00;;;;;;;;5081946;28;46386;-79
2022/04/07 10:19:04;;;;;;;;;0.33;0.33;;;;;;;;5082215;28;45228;-80
2022/04/07 10:21:46;;;;;;;;;0.00;0.00;;;;;;;;5082127;28;45433;-78
2022/04/07 10:24:20;;;;;;;;;1.00;1.00;;;;;;;;5080898;28;45304;-78
2022/04/07 10:26:46;;;;;;;;;0.00;0.00;;;;;;;;5081078;27;45508;-79
2022/04/07 10:29:21;;;;;;;;;0.00;0.00;;;;;;;;5080593;27;46606;-80
2022/04/07 10:32:06;;;;;;;;;0.00;0.00;;;;;;;;5082159;27;45322;-79
2022/04/07 10:34:32;;;;;;;;;0.00;0.00;;;;;;;;5086125;27;45334;-79
2022/04/07 10:37:05;;;;;;;;;0.33;0.33;;;;;;;;5079055;28;45435;-79
2022/04/07 10:39:33;;;;;;;;;2.00;1.00;;;;;;;;5080145;27;45406;-78
2022/04/07 10:41:59;;;;;;;;;0.33;0.00;;;;;;;;5078839;28;45288;-78
2022/04/07 10:44:25;;;;;;;;;0.67;0.67;;;;;;;;5078986;28;45280;-80
2022/04/07 10:47:05;;;;;;;;;1.67;0.00;;;;;;;;5078634;28;46079;-81
2022/04/07 10:49:31;;;;;;;;;1.00;1.00;;;;;;;;5079796;27;45326;-79
2022/04/07 10:51:58;;;;;;;;;0.00;0.00;;;;;;;;5078594;28;45258;-75
2022/04/07 10:54:25;;;;;;;;;0.00;0.00;;;;;;;;5080455;27;45419;-78
2022/04/07 10:56:56;;;;;;;;;0.00;0.00;;;;;;;;5080223;27;45217;-78
2022/04/07 10:59:22;;;;;;;;;0.00;0.00;;;;;;;;5079738;27;46425;-78
2022/04/07 11:01:47;;;;;;;;;0.00;0.00;;;;;;;;5079969;27;45319;-80
2022/04/07 11:04:20;;;;;;;;;1.00;0.00;;;;;;;;5078640;28;45443;-81
2022/04/07 11:07:04;;;;;;;;;2.00;0.00;;;;;;;;5077617;28;46532;-79
2022/04/07 11:09:48;;;;;;;;;0.00;0.00;;;;;;;;5079041;27;45336;-81
2022/04/07 11:12:29;;;;;;;;;0.00;0.00;;;;;;;;5091759;27;45333;-81
2022/04/07 11:15:03;;;;;;;;;0.00;0.00;;;;;;;;5085931;27;45275;-79
2022/04/07 11:17:31;;;;;;;;;0.00;0.00;;;;;;;;5079991;27;45555;-79
2022/04/07 11:20:03;;;;;;;;;0.00;0.00;;;;;;;;5079726;27;45598;-80
2022/04/07 11:22:47;;;;;;;;;0.00;0.00;;;;;;;;5079735;27;45547;-80
2022/04/07 11:25:14;;;;;;;;;1.33;0.00;;;;;;;;5078524;27;45200;-79
2022/04/07 11:27:42;;;;;;;;;0.00;0.00;;;;;;;;5078499;27;45366;-79
2022/04/07 11:30:08;;;;;;;;;1.00;1.00;;;;;;;;5077600;27;47164;-78
2022/04/07 11:32:34;;;;;;;;;0.00;0.00;;;;;;;;5078563;27;45306;-78
2022/04/07 11:35:11;;;;;;;;;1.67;1.00;;;;;;;;5078218;28;45370;-80
2022/04/07 11:37:40;;;;;;;;;0.00;0.00;;;;;;;;5079338;27;45231;-80
2022/04/07 11:40:07;;;;;;;;;0.00;0.00;;;;;;;;5079637;27;45367;-80
2022/04/07 11:42:32;;;;;;;;;0.00;0.00;;;;;;;;5082481;28;45334;-80
2022/04/07 11:44:58;;;;;;;;;0.00;0.00;;;;;;;;5083151;28;45350;-78
2022/04/07 11:47:30;;;;;;;;;0.00;0.00;;;;;;;;5081967;28;47167;-79
2022/04/07 11:49:55;;;;;;;;;0.00;0.00;;;;;;;;5081460;27;48107;-80
2022/04/07 11:52:24;;;;;;;;;0.00;0.00;;;;;;;;5098149;27;45609;-82
2022/04/07 11:54:52;;;;;;;;;0.00;0.00;;;;;;;;5100535;27;45289;-80
2022/04/07 11:57:17;;;;;;;;;0.00;0.00;;;;;;;;5081592;27;45372;-78
2022/04/07 11:59:43;;;;;;;;;0.00;0.00;;;;;;;;5084635;27;46206;-82
2022/04/07 12:02:08;;;;;;;;;0.00;0.00;;;;;;;;5082674;27;45403;-80
2022/04/07 12:04:34;;;;;;;;;0.00;0.00;;;;;;;;5083124;27;45329;-80
2022/04/07 12:07:00;;;;;;;;;0.00;0.00;;;;;;;;5082830;27;45289;-80
2022/04/07 12:09:25;;;;;;;;;0.00;0.00;;;;;;;;5081074;28;48205;-78
2022/04/07 12:11:51;;;;;;;;;0.00;0.00;;;;;;;;5082781;27;45344;-80
2022/04/07 12:14:16;;;;;;;;;0.00;0.00;;;;;;;;5082896;27;45248;-79
2022/04/07 12:16:44;;;;;;;;;1.33;0.00;;;;;;;;5119237;27;45420;-82
2022/04/07 12:19:09;;;;;;;;;0.00;0.00;;;;;;;;5123208;27;45408;-78
2022/04/07 12:21:54;;;;;;;;;0.00;0.00;;;;;;;;5123819;27;45415;-80
2022/04/07 12:24:19;;;;;;;;;0.00;0.00;;;;;;;;5122858;27;45375;-79
2022/04/07 12:26:52;;;;;;;;;0.00;0.00;;;;;;;;5083849;27;45283;-77
2022/04/07 12:29:21;;;;;;;;;0.00;0.00;;;;;;;;5082375;28;46279;-78
2022/04/07 12:32:02;;;;;;;;;1.67;0.00;;;;;;;;5080680;28;45362;-78
2022/04/07 12:34:28;;;;;;;;;1.00;0.33;;;;;;;;5080978;28;45291;-78
2022/04/07 12:36:53;;;;;;;;;0.00;0.00;;;;;;;;5081955;27;45368;-78
2022/04/07 12:39:20;;;;;;;;;0.33;0.33;;;;;;;;5082050;27;45405;-77
2022/04/07 12:41:51;;;;;;;;;0.67;0.67;;;;;;;;5082093;27;45366;-78
2022/04/07 12:44:23;;;;;;;;;0.00;0.00;;;;;;;;5083264;27;45298;-79
2022/04/07 12:46:48;;;;;;;;;1.00;0.67;;;;;;;;5083133;27;45347;-79
2022/04/07 12:49:14;;;;;;;;;1.00;1.00;;;;;;;;5081542;28;48051;-78
2022/04/07 12:51:39;;;;;;;;;0.00;0.00;;;;;;;;5083049;27;45286;-78
2022/04/07 12:54:09;;;;;;;;;1.00;0.33;;;;;;;;5083850;28;45231;-78
2022/04/07 12:56:35;;;;;;;;;2.33;2.00;;;;;;;;5083080;27;45492;-78
2022/04/07 12:59:04;;;;;;;;;2.00;2.00;;;;;;;;5083507;27;45482;-80
2022/04/07 13:01:30;;;;;;;;;1.67;0.33;;;;;;;;5081836;27;45529;-78
2022/04/07 13:03:56;;;;;;;;;2.00;1.00;;;;;;;;5083151;27;45218;-78
2022/04/07 13:06:22;;;;;;;;;0.00;0.00;;;;;;;;5083083;27;45377;-78
2022/04/07 13:08:48;;;;;;;;;1.00;1.00;;;;;;;;5081495;28;45659;-79
2022/04/07 13:11:30;;;;;;;;;5.00;3.00;;;;;;;;5081586;27;45391;-78
2022/04/07 13:13:56;;;;;;;;;1.67;1.67;;;;;;;;5081623;27;45476;-78
2022/04/07 13:16:21;;;;;;;;;1.00;1.00;;;;;;;;5110836;27;46231;-78
2022/04/07 13:18:46;;;;;;;;;2.00;2.00;;;;;;;;5122599;27;45543;-78
2022/04/07 13:21:11;;;;;;;;;0.00;0.00;;;;;;;;5122626;27;45310;-78
2022/04/07 13:23:36;;;;;;;;;4.00;4.00;;;;;;;;5122735;27;45293;-78
2022/04/07 13:26:02;;;;;;;;;2.00;1.67;;;;;;;;5121262;27;47140;-78
2022/04/07 13:28:27;;;;;;;;;2.00;1.00;;;;;;;;5122568;27;45442;-78
2022/04/07 13:30:52;;;;;;;;;2.33;2.00;;;;;;;;5122148;27;45348;-80
2022/04/07 13:33:17;;;;;;;;;2.00;2.00;;;;;;;;5122648;27;45510;-80
2022/04/07 13:35:43;;;;;;;;;6.67;3.00;;;;;;;;5122335;27;45351;-80
2022/04/07 13:38:08;;;;;;;;;1.33;0.33;;;;;;;;5122161;27;46472;-79
2022/04/07 13:40:35;;;;;;;;;2.00;2.00;;;;;;;;5122725;27;45330;-80
2022/04/07 13:43:00;;;;;;;;;1.00;1.00;;;;;;;;5121367;27;45354;-79
2022/04/07 13:45:25;;;;;;;;;1.00;1.00;;;;;;;;5122357;27;45378;-79
2022/04/07 13:47:51;;;;;;;;;2.00;1.00;;;;;;;;5121902;27;45284;-79
2022/04/07 13:50:16;;;;;;;;;4.33;2.00;;;;;;;;5122037;27;45477;-79
2022/04/07 13:52:41;;;;;;;;;2.00;1.00;;;;;;;;5122172;27;45292;-80
2022/04/07 13:55:06;;;;;;;;;5.67;3.33;;;;;;;;5120719;27;45863;-78
2022/04/07 13:57:32;;;;;;;;;2.33;2.00;;;;;;;;5122223;27;45240;-80
2022/04/07 13:59:57;;;;;;;;;1.00;0.00;;;;;;;;5120893;27;45250;-78
2022/04/07 14:02:22;;;;;;;;;2.33;2.33;;;;;;;;5121097;27;45267;-80
2022/04/07 14:04:47;;;;;;;;;2.00;1.33;;;;;;;;5123072;27;45424;-79
2022/04/07 14:07:12;;;;;;;;;3.67;3.67;;;;;;;;5122234;27;45941;-79
2022/04/07 14:09:38;;;;;;;;;2.33;2.33;;;;;;;;5120493;27;45327;-79
2022/04/07 14:12:03;;;;;;;;;3.00;3.00;;;;;;;;5122075;27;45553;-78
2022/04/07 14:14:29;;;;;;;;;3.00;0.67;;;;;;;;5096535;27;45291;-76
2022/04/07 14:16:54;;;;;;;;;3.33;1.67;;;;;;;;5094285;27;47348;-77
2022/04/07 14:19:19;;;;;;;;;3.00;1.00;;;;;;;;5100871;27;45265;-76
2022/04/07 14:21:44;;;;;;;;;4.67;3.00;;;;;;;;5100657;27;45277;-76
2022/04/07 14:24:09;;;;;;;;;3.00;1.00;;;;;;;;5100811;27;45306;-77
2022/04/07 14:26:37;;;;;;;;;1.00;1.00;;;;;;;;5097814;27;46904;-75
2022/04/07 14:29:03;;;;;;;;;1.00;1.00;;;;;;;;5100056;27;45389;-81
2022/04/07 14:31:28;;;;;;;;;1.33;1.33;;;;;;;;5083314;27;45474;-77
2022/04/07 14:33:55;;;;;;;;;2.00;1.67;;;;;;;;5079455;27;45625;-77
2022/04/07 14:36:21;;;;;;;;;2.33;0.00;;;;;;;;5080436;27;45435;-80
2022/04/07 14:38:46;;;;;;;;;3.33;2.67;;;;;;;;5080153;27;45383;-78